createdAt,value
2022-12-14T00:00:13.301Z,97.09
2022-12-14T00:01:13.265Z,97.19
2022-12-14T00:02:13.310Z,97.36
2022-12-14T00:03:13.388Z,97.30
2022-12-14T00:04:13.225Z,97.19
2022-12-14T00:05:13.204Z,97.15
2022-12-14T00:06:13.194Z,97.25
2022-12-14T00:07:13.190Z,97.36
2022-12-14T00:08:13.171Z,97.36
2022-12-14T00:09:13.167Z,97.15
2022-12-14T00:10:13.139Z,96.34
2022-12-14T00:11:13.136Z,95.98
2022-12-14T00:12:13.114Z,95.88
2022-12-14T00:13:13.100Z,95.88
2022-12-14T00:14:13.097Z,95.88
2022-12-14T00:15:13.076Z,95.78
2022-12-14T00:16:13.170Z,95.39
2022-12-14T00:17:13.050Z,95.29
2022-12-14T00:18:15.688Z,95.18
2022-12-14T00:19:13.023Z,95.07
2022-12-14T00:20:13.014Z,95.18
2022-12-14T00:21:13.009Z,95.39
2022-12-14T00:22:12.985Z,95.50
2022-12-14T00:23:12.978Z,95.39
2022-12-14T00:24:12.962Z,95.18
2022-12-14T00:25:12.958Z,95.29
2022-12-14T00:26:12.936Z,95.33
2022-12-14T00:27:12.921Z,95.54
2022-12-14T00:28:12.912Z,95.71
2022-12-14T00:29:12.903Z,95.92
2022-12-14T00:30:12.883Z,96.45
2022-12-14T00:31:13.029Z,96.88
2022-12-14T00:32:12.964Z,97.19
2022-12-14T00:33:12.847Z,97.41
2022-12-14T00:34:12.841Z,97.72
2022-12-14T00:35:12.827Z,98.14
2022-12-14T00:36:12.811Z,98.04
2022-12-14T00:37:12.794Z,97.72
2022-12-14T00:38:12.787Z,97.61
2022-12-14T00:39:12.775Z,97.72
2022-12-14T00:40:12.753Z,97.61
2022-12-14T00:41:12.755Z,97.87
2022-12-14T00:42:12.733Z,97.98
2022-12-14T00:43:12.714Z,98.19
2022-12-14T00:44:12.711Z,98.19
2022-12-14T00:45:12.698Z,98.30
2022-12-14T00:46:12.736Z,98.30
2022-12-14T00:47:12.671Z,98.46
2022-12-14T00:48:12.680Z,98.46
2022-12-14T00:49:12.634Z,98.50
2022-12-14T00:50:12.635Z,98.08
2022-12-14T00:51:12.610Z,98.08
2022-12-14T00:52:12.596Z,98.04
2022-12-14T00:53:12.588Z,97.72
2022-12-14T00:54:12.569Z,97.61
2022-12-14T00:55:12.557Z,97.72
2022-12-14T00:56:12.543Z,97.93
2022-12-14T00:57:12.527Z,98.14
2022-12-14T00:58:12.518Z,98.14
2022-12-14T00:59:12.511Z,98.25
2022-12-14T01:00:12.490Z,98.46
2022-12-14T01:01:12.705Z,98.46
2022-12-14T01:02:12.584Z,98.63
2022-12-14T01:03:12.649Z,98.74
2022-12-14T01:04:12.517Z,98.99
2022-12-14T01:05:12.433Z,99.05
2022-12-14T01:06:12.421Z,99.16
2022-12-14T01:07:12.399Z,99.16
2022-12-14T01:08:12.380Z,99.16
2022-12-14T01:09:12.380Z,98.94
2022-12-14T01:10:12.361Z,98.94
2022-12-14T01:11:12.365Z,98.94
2022-12-14T01:12:12.332Z,98.94
2022-12-14T01:13:12.322Z,98.94
2022-12-14T01:14:12.315Z,98.74
2022-12-14T01:15:12.300Z,98.74
2022-12-14T01:16:12.397Z,98.99
2022-12-14T01:17:12.271Z,99.10
2022-12-14T01:18:12.256Z,99.20
2022-12-14T01:19:12.242Z,99.31
2022-12-14T01:20:12.283Z,99.37
2022-12-14T01:21:12.223Z,99.31
2022-12-14T01:22:12.205Z,99.26
2022-12-14T01:23:12.194Z,99.37
2022-12-14T01:24:12.176Z,99.48
2022-12-14T01:25:12.172Z,99.52
2022-12-14T01:26:12.151Z,99.52
2022-12-14T01:27:12.139Z,99.52
2022-12-14T01:28:12.139Z,99.63
2022-12-14T01:29:12.122Z,99.69
2022-12-14T01:30:12.099Z,99.73
2022-12-14T01:31:12.171Z,99.84
2022-12-14T01:32:12.080Z,99.95
2022-12-14T01:33:12.059Z,99.95
2022-12-14T01:34:12.049Z,99.99
2022-12-14T01:35:12.045Z,99.99
2022-12-14T01:36:12.051Z,99.99
2022-12-14T01:37:12.010Z,99.99
2022-12-14T01:38:11.996Z,99.99
2022-12-14T01:39:11.989Z,99.99
2022-12-14T01:40:11.973Z,99.99
2022-12-14T01:41:11.960Z,99.99
2022-12-14T01:42:11.942Z,99.99
2022-12-14T01:43:11.924Z,99.99
2022-12-14T01:44:11.926Z,99.99
2022-12-14T01:45:11.904Z,99.99
2022-12-14T01:46:11.946Z,99.99
2022-12-14T01:47:12.912Z,99.99
2022-12-14T01:48:11.865Z,99.99
2022-12-14T01:49:11.858Z,99.99
2022-12-14T01:50:11.840Z,99.99
2022-12-14T01:51:11.842Z,99.99
2022-12-14T01:52:11.849Z,99.99
2022-12-14T01:53:11.806Z,99.99
2022-12-14T01:54:11.791Z,99.99
2022-12-14T01:55:11.784Z,99.99
2022-12-14T01:56:11.767Z,99.99
2022-12-14T01:57:11.750Z,99.99
2022-12-14T01:58:11.743Z,99.99
2022-12-14T01:59:11.722Z,99.99
2022-12-14T02:00:11.720Z,99.99
2022-12-14T02:01:11.778Z,99.99
2022-12-14T02:02:11.970Z,99.99
2022-12-14T02:03:11.719Z,99.99
2022-12-14T02:04:11.658Z,99.99
2022-12-14T02:05:11.656Z,99.99
2022-12-14T02:06:11.643Z,99.99
2022-12-14T02:07:11.623Z,99.99
2022-12-14T02:08:11.638Z,99.99
2022-12-14T02:09:11.592Z,99.99
2022-12-14T02:10:11.583Z,99.99
2022-12-14T02:11:11.577Z,99.99
2022-12-14T02:12:11.561Z,99.99
2022-12-14T02:13:11.553Z,99.99
2022-12-14T02:14:11.535Z,99.99
2022-12-14T02:15:11.525Z,99.99
2022-12-14T02:16:11.554Z,99.99
2022-12-14T02:17:11.491Z,99.99
2022-12-14T02:18:11.487Z,99.99
2022-12-14T02:19:11.471Z,99.99
2022-12-14T02:20:11.461Z,99.99
2022-12-14T02:21:11.439Z,99.99
2022-12-14T02:22:11.423Z,99.99
2022-12-14T02:23:11.413Z,99.99
2022-12-14T02:24:11.424Z,99.99
2022-12-14T02:25:11.394Z,99.90
2022-12-14T02:26:11.377Z,99.58
2022-12-14T02:27:11.359Z,99.58
2022-12-14T02:28:11.349Z,99.54
2022-12-14T02:29:11.332Z,99.22
2022-12-14T02:30:11.329Z,99.01
2022-12-14T02:31:11.371Z,98.80
2022-12-14T02:32:11.318Z,98.80
2022-12-14T02:33:11.284Z,98.80
2022-12-14T02:34:11.268Z,98.80
2022-12-14T02:35:11.256Z,98.80
2022-12-14T02:36:11.251Z,98.63
2022-12-14T02:37:11.230Z,98.63
2022-12-14T02:38:11.220Z,98.63
2022-12-14T02:39:11.211Z,98.63
2022-12-14T02:40:11.218Z,98.63
2022-12-14T02:41:11.187Z,98.69
2022-12-14T02:42:11.164Z,98.90
2022-12-14T02:43:11.158Z,98.90
2022-12-14T02:44:11.139Z,99.05
2022-12-14T02:45:11.133Z,99.01
2022-12-14T02:46:11.171Z,99.01
2022-12-14T02:47:11.160Z,99.01
2022-12-14T02:48:11.091Z,99.01
2022-12-14T02:49:11.081Z,99.01
2022-12-14T02:50:11.062Z,99.11
2022-12-14T02:51:11.049Z,99.11
2022-12-14T02:52:11.043Z,99.11
2022-12-14T02:53:11.029Z,99.11
2022-12-14T02:54:11.011Z,99.22
2022-12-14T02:55:10.999Z,99.22
2022-12-14T02:56:11.011Z,99.22
2022-12-14T02:57:10.972Z,99.22
2022-12-14T02:58:10.966Z,99.18
2022-12-14T02:59:10.952Z,99.18
2022-12-14T03:00:10.932Z,99.18
2022-12-14T03:01:11.051Z,99.18
2022-12-14T03:02:11.063Z,99.07
2022-12-14T03:03:10.898Z,99.07
2022-12-14T03:04:10.887Z,98.96
2022-12-14T03:05:10.872Z,98.86
2022-12-14T03:06:10.854Z,98.75
2022-12-14T03:07:10.840Z,98.54
2022-12-14T03:08:10.836Z,98.43
2022-12-14T03:09:10.821Z,98.43
2022-12-14T03:10:10.808Z,98.43
2022-12-14T03:11:10.799Z,98.43
2022-12-14T03:12:10.808Z,98.54
2022-12-14T03:13:10.771Z,98.65
2022-12-14T03:14:10.756Z,98.86
2022-12-14T03:15:10.743Z,98.86
2022-12-14T03:16:10.779Z,98.96
2022-12-14T03:17:12.484Z,99.07
2022-12-14T03:18:10.704Z,99.07
2022-12-14T03:19:10.692Z,99.07
2022-12-14T03:20:10.673Z,98.96
2022-12-14T03:21:10.657Z,99.07
2022-12-14T03:22:10.644Z,99.18
2022-12-14T03:23:10.638Z,99.18
2022-12-14T03:24:10.626Z,99.18
2022-12-14T03:25:10.614Z,99.18
2022-12-14T03:26:10.592Z,99.18
2022-12-14T03:27:10.586Z,99.38
2022-12-14T03:28:10.592Z,99.49
2022-12-14T03:29:10.552Z,99.54
2022-12-14T03:30:10.543Z,99.49
2022-12-14T03:31:10.593Z,99.60
2022-12-14T03:32:10.517Z,99.70
2022-12-14T03:33:10.504Z,99.80
2022-12-14T03:34:13.272Z,99.91
2022-12-14T03:35:10.477Z,99.99
2022-12-14T03:36:10.465Z,99.99
2022-12-14T03:37:10.454Z,99.99
2022-12-14T03:38:10.445Z,99.87
2022-12-14T03:39:10.427Z,99.99
2022-12-14T03:40:10.425Z,99.98
2022-12-14T03:41:10.410Z,99.99
2022-12-14T03:42:10.394Z,99.98
2022-12-14T03:43:10.387Z,99.98
2022-12-14T03:44:10.389Z,99.99
2022-12-14T03:45:10.357Z,99.87
2022-12-14T03:46:10.393Z,99.76
2022-12-14T03:47:10.326Z,99.76
2022-12-14T03:48:10.312Z,99.76
2022-12-14T03:49:10.308Z,99.66
2022-12-14T03:50:10.284Z,99.44
2022-12-14T03:51:10.270Z,99.44
2022-12-14T03:52:10.261Z,99.44
2022-12-14T03:53:10.249Z,99.44
2022-12-14T03:54:10.239Z,99.34
2022-12-14T03:55:10.228Z,99.34
2022-12-14T03:56:10.205Z,99.24
2022-12-14T03:57:10.203Z,99.34
2022-12-14T03:58:10.185Z,99.44
2022-12-14T03:59:10.177Z,99.66
2022-12-14T04:00:10.185Z,99.76
2022-12-14T04:01:10.271Z,99.98
2022-12-14T04:02:10.288Z,99.98
2022-12-14T04:03:10.181Z,99.99
2022-12-14T04:04:10.105Z,99.99
2022-12-14T04:05:10.102Z,99.98
2022-12-14T04:06:10.087Z,99.98
2022-12-14T04:07:10.072Z,99.98
2022-12-14T04:08:10.060Z,99.98
2022-12-14T04:09:10.049Z,99.99
2022-12-14T04:10:10.041Z,99.99
2022-12-14T04:11:10.029Z,99.99
2022-12-14T04:12:10.014Z,99.99
2022-12-14T04:13:09.998Z,99.99
2022-12-14T04:14:09.989Z,99.99
2022-12-14T04:15:09.967Z,99.99
2022-12-14T04:16:10.026Z,99.99
2022-12-14T04:17:09.945Z,99.99
2022-12-14T04:18:09.926Z,99.99
2022-12-14T04:19:09.918Z,99.99
2022-12-14T04:20:09.907Z,99.99
2022-12-14T04:21:09.894Z,99.99
2022-12-14T04:22:09.879Z,99.99
2022-12-14T04:23:09.864Z,99.99
2022-12-14T04:24:09.854Z,99.99
2022-12-14T04:25:09.833Z,99.99
2022-12-14T04:26:09.823Z,99.99
2022-12-14T04:27:09.818Z,99.99
2022-12-14T04:28:09.794Z,99.99
2022-12-14T04:29:09.797Z,99.99
2022-12-14T04:30:09.770Z,99.99
2022-12-14T04:31:09.754Z,99.99
2022-12-14T04:32:09.908Z,99.99
2022-12-14T04:33:09.736Z,99.99
2022-12-14T04:34:09.716Z,99.99
2022-12-14T04:35:09.705Z,99.99
2022-12-14T04:36:09.692Z,99.99
2022-12-14T04:37:09.678Z,99.99
2022-12-14T04:38:09.667Z,99.99
2022-12-14T04:39:09.683Z,99.99
2022-12-14T04:40:09.649Z,99.99
2022-12-14T04:41:09.628Z,99.88
2022-12-14T04:42:09.615Z,99.57
2022-12-14T04:43:09.601Z,99.25
2022-12-14T04:44:09.588Z,98.77
2022-12-14T04:45:09.582Z,98.66
2022-12-14T04:46:09.633Z,98.77
2022-12-14T04:47:09.555Z,98.87
2022-12-14T04:48:09.572Z,98.87
2022-12-14T04:49:09.531Z,99.08
2022-12-14T04:50:09.512Z,98.87
2022-12-14T04:51:09.504Z,98.87
2022-12-14T04:52:09.496Z,99.08
2022-12-14T04:53:09.474Z,99.19
2022-12-14T04:54:09.460Z,99.30
2022-12-14T04:55:09.457Z,99.19
2022-12-14T04:56:09.439Z,99.08
2022-12-14T04:57:12.199Z,99.19
2022-12-14T04:58:09.415Z,99.19
2022-12-14T04:59:09.395Z,98.98
2022-12-14T05:00:09.390Z,98.98
2022-12-14T05:01:09.544Z,98.93
2022-12-14T05:02:09.519Z,98.93
2022-12-14T05:03:09.381Z,98.93
2022-12-14T05:04:12.456Z,98.83
2022-12-14T05:05:09.325Z,98.66
2022-12-14T05:06:09.314Z,98.55
2022-12-14T05:07:09.303Z,98.45
2022-12-14T05:08:09.279Z,98.55
2022-12-14T05:09:09.282Z,98.66
2022-12-14T05:10:09.260Z,98.77
2022-12-14T05:11:39.483Z,98.83
2022-12-14T05:12:10.267Z,98.98
2022-12-14T05:13:09.224Z,99.04
2022-12-14T05:14:09.213Z,98.51
2022-12-14T05:15:09.190Z,98.09
2022-12-14T05:16:09.178Z,97.88
2022-12-14T05:17:09.753Z,97.99
2022-12-14T05:18:09.157Z,97.99
2022-12-14T05:19:09.142Z,97.88
2022-12-14T05:20:09.153Z,97.99
2022-12-14T05:21:09.115Z,98.24
2022-12-14T05:22:09.099Z,98.41
2022-12-14T05:23:09.092Z,98.51
2022-12-14T05:24:09.079Z,98.51
2022-12-14T05:25:09.068Z,98.51
2022-12-14T05:26:09.047Z,98.41
2022-12-14T05:27:09.043Z,98.30
2022-12-14T05:28:09.023Z,98.30
2022-12-14T05:29:09.011Z,98.41
2022-12-14T05:30:08.993Z,98.61
2022-12-14T05:31:09.024Z,98.72
2022-12-14T05:32:08.973Z,98.89
2022-12-14T05:33:08.958Z,99.04
2022-12-14T05:34:08.954Z,98.99
2022-12-14T05:35:08.940Z,98.89
2022-12-14T05:36:08.951Z,98.83
2022-12-14T05:37:13.101Z,98.68
2022-12-14T05:38:09.929Z,98.68
2022-12-14T05:39:08.883Z,98.79
2022-12-14T05:40:08.880Z,98.79
2022-12-14T05:41:08.858Z,98.79
2022-12-14T05:42:08.844Z,98.79
2022-12-14T05:43:08.830Z,98.79
2022-12-14T05:44:08.824Z,98.68
2022-12-14T05:45:08.807Z,98.57
2022-12-14T05:46:08.841Z,98.57
2022-12-14T05:47:08.779Z,98.47
2022-12-14T05:48:08.775Z,98.47
2022-12-14T05:49:08.758Z,98.47
2022-12-14T05:50:08.743Z,98.32
2022-12-14T05:51:08.730Z,98.21
2022-12-14T05:52:08.751Z,98.21
2022-12-14T05:53:08.712Z,98.32
2022-12-14T05:54:08.688Z,98.11
2022-12-14T05:55:08.681Z,98.11
2022-12-14T05:56:08.677Z,98.15
2022-12-14T05:57:08.652Z,98.05
2022-12-14T05:58:08.640Z,98.11
2022-12-14T05:59:08.624Z,98.15
2022-12-14T06:00:08.621Z,98.25
2022-12-14T06:01:12.646Z,98.15
2022-12-14T06:02:09.811Z,97.94
2022-12-14T06:03:08.675Z,97.83
2022-12-14T06:04:08.610Z,97.94
2022-12-14T06:05:08.553Z,98.05
2022-12-14T06:06:08.534Z,98.05
2022-12-14T06:07:08.523Z,97.94
2022-12-14T06:08:08.531Z,97.83
2022-12-14T06:09:08.499Z,97.63
2022-12-14T06:10:08.491Z,97.63
2022-12-14T06:11:08.472Z,97.63
2022-12-14T06:12:08.463Z,97.73
2022-12-14T06:13:08.444Z,97.94
2022-12-14T06:14:08.437Z,98.05
2022-12-14T06:15:08.427Z,98.11
2022-12-14T06:16:08.481Z,98.05
2022-12-14T06:17:08.394Z,98.11
2022-12-14T06:18:08.386Z,98.00
2022-12-14T06:19:08.369Z,97.94
2022-12-14T06:20:08.350Z,97.89
2022-12-14T06:21:08.340Z,98.11
2022-12-14T06:22:08.338Z,98.21
2022-12-14T06:23:08.315Z,98.21
2022-12-14T06:24:08.335Z,98.00
2022-12-14T06:25:08.295Z,97.79
2022-12-14T06:26:08.289Z,97.69
2022-12-14T06:27:08.272Z,97.69
2022-12-14T06:28:08.255Z,97.89
2022-12-14T06:29:08.238Z,98.00
2022-12-14T06:30:08.229Z,98.21
2022-12-14T06:31:08.323Z,98.43
2022-12-14T06:32:08.204Z,98.63
2022-12-14T06:33:08.195Z,98.53
2022-12-14T06:34:08.177Z,98.43
2022-12-14T06:35:08.155Z,98.53
2022-12-14T06:36:08.159Z,98.53
2022-12-14T06:37:08.137Z,98.53
2022-12-14T06:38:08.129Z,98.63
2022-12-14T06:39:08.114Z,98.69
2022-12-14T06:40:08.126Z,98.85
2022-12-14T06:41:08.084Z,98.80
2022-12-14T06:42:08.069Z,98.80
2022-12-14T06:43:08.064Z,98.80
2022-12-14T06:44:08.041Z,98.91
2022-12-14T06:45:08.038Z,98.91
2022-12-14T06:46:14.612Z,98.80
2022-12-14T06:47:09.033Z,98.80
2022-12-14T06:48:07.998Z,98.80
2022-12-14T06:49:07.983Z,98.80
2022-12-14T06:50:07.977Z,98.95
2022-12-14T06:51:07.961Z,98.91
2022-12-14T06:52:07.939Z,98.91
2022-12-14T06:53:07.926Z,98.69
2022-12-14T06:54:07.925Z,98.59
2022-12-14T06:55:07.910Z,98.49
2022-12-14T06:56:07.917Z,98.38
2022-12-14T06:57:07.875Z,98.27
2022-12-14T06:58:07.861Z,98.38
2022-12-14T06:59:07.850Z,98.38
2022-12-14T07:00:07.836Z,98.49
2022-12-14T07:01:07.907Z,98.49
2022-12-14T07:02:07.948Z,98.44
2022-12-14T07:03:07.897Z,98.59
2022-12-14T07:04:07.798Z,98.55
2022-12-14T07:05:07.773Z,98.65
2022-12-14T07:06:07.767Z,98.97
2022-12-14T07:07:07.749Z,99.07
2022-12-14T07:08:07.741Z,99.39
2022-12-14T07:09:07.729Z,99.60
2022-12-14T07:10:07.709Z,99.60
2022-12-14T07:11:07.703Z,99.39
2022-12-14T07:12:07.719Z,99.24
2022-12-14T07:13:07.676Z,99.28
2022-12-14T07:14:07.659Z,99.28
2022-12-14T07:15:07.637Z,99.60
2022-12-14T07:16:07.673Z,99.70
2022-12-14T07:17:07.620Z,99.81
2022-12-14T07:18:07.608Z,99.91
2022-12-14T07:19:07.595Z,99.99
2022-12-14T07:20:07.592Z,99.91
2022-12-14T07:21:07.578Z,99.91
2022-12-14T07:22:07.555Z,99.91
2022-12-14T07:23:07.550Z,99.81
2022-12-14T07:24:07.536Z,99.81
2022-12-14T07:25:07.513Z,99.81
2022-12-14T07:26:07.514Z,99.91
2022-12-14T07:27:07.493Z,99.91
2022-12-14T07:28:07.498Z,99.99
2022-12-14T07:29:07.469Z,99.99
2022-12-14T07:30:07.454Z,99.99
2022-12-14T07:31:07.502Z,99.98
2022-12-14T07:32:07.429Z,99.98
2022-12-14T07:33:07.801Z,99.98
2022-12-14T07:34:07.409Z,99.87
2022-12-14T07:35:10.488Z,99.76
2022-12-14T07:36:08.414Z,99.70
2022-12-14T07:37:07.358Z,99.66
2022-12-14T07:38:07.350Z,99.55
2022-12-14T07:39:07.348Z,99.44
2022-12-14T07:40:07.328Z,99.34
2022-12-14T07:41:07.308Z,99.34
2022-12-14T07:42:07.296Z,99.24
2022-12-14T07:43:07.284Z,99.24
2022-12-14T07:44:07.294Z,99.24
2022-12-14T07:45:07.257Z,99.13
2022-12-14T07:46:07.345Z,99.24
2022-12-14T07:47:07.239Z,99.24
2022-12-14T07:48:07.217Z,99.24
2022-12-14T07:49:07.200Z,99.24
2022-12-14T07:50:07.198Z,99.34
2022-12-14T07:51:07.200Z,99.30
2022-12-14T07:52:07.167Z,99.44
2022-12-14T07:53:07.153Z,99.44
2022-12-14T07:54:07.141Z,99.51
2022-12-14T07:55:07.141Z,99.51
2022-12-14T07:56:07.114Z,99.40
2022-12-14T07:57:07.105Z,99.40
2022-12-14T07:58:07.088Z,99.51
2022-12-14T07:59:07.079Z,99.34
2022-12-14T08:00:07.085Z,99.30
2022-12-14T08:01:07.051Z,99.44
2022-12-14T08:02:07.133Z,99.40
2022-12-14T08:03:07.032Z,99.44
2022-12-14T08:04:07.046Z,99.34
2022-12-14T08:05:12.277Z,99.24
2022-12-14T08:06:06.987Z,99.30
2022-12-14T08:07:06.974Z,99.44
2022-12-14T08:08:06.968Z,99.44
2022-12-14T08:09:06.947Z,99.34
2022-12-14T08:10:06.939Z,99.34
2022-12-14T08:11:06.922Z,99.34
2022-12-14T08:12:06.911Z,99.34
2022-12-14T08:13:06.896Z,99.34
2022-12-14T08:14:06.882Z,99.34
2022-12-14T08:15:06.880Z,99.44
2022-12-14T08:16:06.960Z,99.44
2022-12-14T08:17:06.853Z,99.44
2022-12-14T08:18:06.841Z,99.24
2022-12-14T08:19:06.813Z,99.13
2022-12-14T08:20:06.812Z,99.13
2022-12-14T08:21:06.795Z,99.02
2022-12-14T08:22:06.781Z,98.92
2022-12-14T08:23:06.776Z,99.02
2022-12-14T08:24:06.749Z,99.13
2022-12-14T08:25:06.742Z,99.24
2022-12-14T08:26:06.739Z,99.34
2022-12-14T08:27:06.715Z,99.24
2022-12-14T08:28:06.701Z,99.24
2022-12-14T08:29:06.692Z,99.34
2022-12-14T08:30:06.673Z,99.55
2022-12-14T08:31:06.763Z,99.55
2022-12-14T08:32:06.671Z,99.55
2022-12-14T08:33:06.637Z,99.44
2022-12-14T08:34:06.631Z,99.44
2022-12-14T08:35:06.616Z,99.34
2022-12-14T08:36:06.599Z,99.44
2022-12-14T08:37:06.595Z,99.55
2022-12-14T08:38:06.579Z,99.55
2022-12-14T08:39:06.570Z,99.66
2022-12-14T08:40:06.554Z,99.66
2022-12-14T08:41:06.542Z,99.76
2022-12-14T08:42:06.531Z,99.98
2022-12-14T08:43:06.529Z,99.82
2022-12-14T08:44:06.500Z,99.87
2022-12-14T08:45:06.494Z,99.76
2022-12-14T08:46:06.476Z,99.55
2022-12-14T08:47:06.526Z,99.55
2022-12-14T08:48:06.469Z,99.61
2022-12-14T08:49:06.441Z,99.72
2022-12-14T08:50:06.419Z,99.61
2022-12-14T08:51:06.413Z,99.72
2022-12-14T08:52:06.413Z,99.72
2022-12-14T08:53:06.380Z,99.72
2022-12-14T08:54:06.369Z,99.72
2022-12-14T08:55:06.368Z,99.72
2022-12-14T08:56:06.354Z,99.82
2022-12-14T08:57:06.332Z,99.93
2022-12-14T08:58:06.315Z,99.82
2022-12-14T08:59:06.327Z,99.99
2022-12-14T09:00:06.300Z,99.99
2022-12-14T09:01:06.363Z,99.99
2022-12-14T09:02:06.383Z,99.99
2022-12-14T09:03:06.370Z,99.99
2022-12-14T09:04:06.287Z,99.99
2022-12-14T09:05:06.221Z,99.99
2022-12-14T09:06:06.209Z,99.99
2022-12-14T09:07:06.198Z,99.99
2022-12-14T09:08:06.201Z,99.99
2022-12-14T09:09:09.318Z,99.99
2022-12-14T09:10:07.195Z,99.99
2022-12-14T09:11:06.147Z,99.99
2022-12-14T09:12:06.138Z,99.99
2022-12-14T09:13:06.124Z,99.99
2022-12-14T09:14:06.118Z,99.99
2022-12-14T09:15:06.095Z,99.99
2022-12-14T09:16:06.155Z,99.96
2022-12-14T09:17:06.070Z,99.74
2022-12-14T09:18:06.056Z,99.37
2022-12-14T09:19:06.053Z,99.37
2022-12-14T09:20:06.035Z,99.48
2022-12-14T09:21:06.025Z,99.58
2022-12-14T09:22:06.028Z,99.58
2022-12-14T09:23:05.997Z,99.58
2022-12-14T09:24:05.978Z,99.69
2022-12-14T09:25:05.970Z,99.79
2022-12-14T09:26:05.951Z,99.99
2022-12-14T09:27:05.943Z,99.99
2022-12-14T09:28:05.928Z,99.99
2022-12-14T09:29:05.921Z,99.99
2022-12-14T09:30:05.907Z,99.91
2022-12-14T09:31:05.899Z,99.91
2022-12-14T09:32:05.969Z,99.70
2022-12-14T09:33:05.860Z,99.49
2022-12-14T09:34:05.852Z,98.97
2022-12-14T09:35:05.834Z,98.65
2022-12-14T09:36:05.822Z,98.50
2022-12-14T09:37:05.809Z,98.50
2022-12-14T09:38:05.809Z,98.39
2022-12-14T09:39:05.781Z,98.61
2022-12-14T09:40:05.778Z,98.61
2022-12-14T09:41:07.536Z,98.61
2022-12-14T09:42:05.750Z,98.50
2022-12-14T09:43:05.740Z,98.61
2022-12-14T09:44:05.726Z,98.82
2022-12-14T09:45:05.704Z,98.92
2022-12-14T09:46:05.796Z,99.03
2022-12-14T09:47:05.705Z,99.13
2022-12-14T09:48:05.670Z,99.13
2022-12-14T09:49:05.659Z,99.19
2022-12-14T09:50:05.642Z,99.03
2022-12-14T09:51:05.777Z,99.13
2022-12-14T09:52:05.613Z,99.03
2022-12-14T09:53:05.609Z,99.24
2022-12-14T09:54:05.588Z,99.34
2022-12-14T09:55:05.582Z,99.51
2022-12-14T09:56:05.561Z,99.55
2022-12-14T09:57:05.559Z,99.76
2022-12-14T09:58:05.546Z,99.82
2022-12-14T09:59:05.543Z,99.82
2022-12-14T10:00:05.512Z,99.82
2022-12-14T10:01:05.576Z,99.82
2022-12-14T10:02:35.550Z,99.93
2022-12-14T10:03:07.352Z,99.82
2022-12-14T10:04:05.566Z,99.82
2022-12-14T10:05:05.458Z,99.40
2022-12-14T10:06:05.451Z,99.30
2022-12-14T10:07:05.423Z,99.55
2022-12-14T10:08:05.407Z,99.76
2022-12-14T10:09:05.413Z,99.99
2022-12-14T10:10:05.385Z,99.99
2022-12-14T10:11:05.369Z,99.99
2022-12-14T10:12:05.362Z,99.99
2022-12-14T10:13:05.343Z,99.99
2022-12-14T10:14:05.338Z,99.99
2022-12-14T10:15:05.320Z,99.99
2022-12-14T10:16:05.398Z,99.99
2022-12-14T10:17:05.345Z,99.99
2022-12-14T10:18:05.277Z,99.99
2022-12-14T10:19:05.592Z,99.99
2022-12-14T10:20:05.264Z,99.99
2022-12-14T10:21:05.240Z,99.99
2022-12-14T10:22:05.248Z,99.99
2022-12-14T10:23:05.222Z,99.99
2022-12-14T10:24:05.203Z,99.99
2022-12-14T10:25:05.191Z,99.99
2022-12-14T10:26:05.171Z,99.99
2022-12-14T10:27:05.168Z,99.99
2022-12-14T10:28:12.684Z,99.99
2022-12-14T10:29:06.168Z,99.99
2022-12-14T10:30:05.128Z,99.99
2022-12-14T10:31:05.117Z,99.99
2022-12-14T10:32:05.257Z,99.99
2022-12-14T10:33:05.087Z,99.99
2022-12-14T10:34:07.750Z,99.99
2022-12-14T10:35:05.055Z,99.99
2022-12-14T10:36:05.043Z,99.99
2022-12-14T10:37:05.036Z,99.99
2022-12-14T10:38:05.016Z,99.99
2022-12-14T10:39:05.021Z,99.99
2022-12-14T10:40:12.435Z,99.99
2022-12-14T10:41:06.029Z,99.99
2022-12-14T10:42:04.960Z,99.99
2022-12-14T10:43:04.948Z,99.99
2022-12-14T10:44:04.934Z,99.99
2022-12-14T10:45:31.751Z,99.99
2022-12-14T10:46:11.831Z,99.99
2022-12-14T10:47:06.035Z,99.99
2022-12-14T10:48:04.890Z,99.99
2022-12-14T10:49:04.870Z,99.99
2022-12-14T10:50:04.867Z,99.99
2022-12-14T10:51:04.845Z,99.99
2022-12-14T10:52:04.833Z,99.99
2022-12-14T10:53:04.826Z,99.99
2022-12-14T10:54:04.806Z,99.99
2022-12-14T10:55:04.799Z,99.99
2022-12-14T10:56:04.845Z,99.99
2022-12-14T10:57:04.764Z,99.99
2022-12-14T10:58:04.769Z,99.99
2022-12-14T10:59:04.743Z,99.99
2022-12-14T11:00:09.528Z,99.99
2022-12-14T11:01:04.817Z,99.99
2022-12-14T11:02:05.111Z,99.99
2022-12-14T11:03:04.779Z,99.99
2022-12-14T11:04:04.675Z,99.99
2022-12-14T11:05:04.661Z,99.99
2022-12-14T11:06:04.657Z,99.99
2022-12-14T11:07:04.632Z,99.99
2022-12-14T11:08:04.622Z,99.99
2022-12-14T11:09:04.610Z,99.99
2022-12-14T11:10:04.595Z,99.99
2022-12-14T11:11:04.586Z,99.99
2022-12-14T11:12:04.694Z,99.99
2022-12-14T11:13:04.562Z,99.99
2022-12-14T11:14:04.552Z,99.99
2022-12-14T11:15:04.536Z,99.99
2022-12-14T11:16:04.527Z,99.99
2022-12-14T11:17:04.632Z,99.99
2022-12-14T11:18:04.694Z,99.99
2022-12-14T11:19:04.493Z,99.99
2022-12-14T11:20:04.466Z,99.99
2022-12-14T11:21:04.481Z,99.99
2022-12-14T11:22:04.445Z,99.99
2022-12-14T11:23:04.428Z,99.99
2022-12-14T11:24:04.414Z,99.99
2022-12-14T11:25:04.407Z,99.99
2022-12-14T11:26:04.388Z,99.99
2022-12-14T11:27:04.381Z,99.99
2022-12-14T11:28:04.360Z,99.99
2022-12-14T11:29:04.358Z,99.99
2022-12-14T11:30:04.339Z,99.99
2022-12-14T11:31:04.435Z,99.99
2022-12-14T11:32:04.309Z,99.99
2022-12-14T11:33:04.304Z,99.99
2022-12-14T11:34:04.275Z,99.99
2022-12-14T11:35:04.278Z,99.99
2022-12-14T11:36:04.270Z,99.99
2022-12-14T11:37:04.253Z,99.99
2022-12-14T11:38:04.229Z,99.99
2022-12-14T11:39:04.215Z,99.99
2022-12-14T11:40:04.219Z,99.99
2022-12-14T11:41:10.636Z,99.99
2022-12-14T11:42:04.188Z,99.99
2022-12-14T11:43:04.170Z,99.99
2022-12-14T11:44:04.151Z,99.99
2022-12-14T11:45:04.143Z,99.99
2022-12-14T11:46:04.191Z,99.99
2022-12-14T11:47:04.126Z,99.99
2022-12-14T11:48:04.107Z,99.99
2022-12-14T11:49:04.094Z,99.99
2022-12-14T11:50:04.079Z,99.99
2022-12-14T11:51:04.063Z,99.99
2022-12-14T11:52:04.055Z,99.99
2022-12-14T11:53:09.341Z,99.99
2022-12-14T11:54:05.058Z,99.99
2022-12-14T11:55:04.013Z,99.99
2022-12-14T11:56:03.997Z,99.99
2022-12-14T11:57:03.994Z,99.99
2022-12-14T11:58:03.972Z,99.99
2022-12-14T11:59:03.954Z,99.99
2022-12-14T12:00:03.944Z,99.99
2022-12-14T12:01:03.959Z,99.99
2022-12-14T12:02:04.118Z,99.99
2022-12-14T12:03:04.029Z,99.99
2022-12-14T12:04:04.046Z,99.99
2022-12-14T12:05:03.887Z,99.99
2022-12-14T12:06:03.861Z,99.99
2022-12-14T12:07:04.740Z,99.99
2022-12-14T12:08:03.840Z,99.99
2022-12-14T12:09:03.835Z,99.99
2022-12-14T12:10:03.811Z,99.99
2022-12-14T12:11:03.822Z,99.99
2022-12-14T12:12:03.785Z,99.99
2022-12-14T12:13:03.778Z,99.99
2022-12-14T12:14:03.760Z,99.99
2022-12-14T12:15:03.753Z,99.99
2022-12-14T12:16:03.809Z,99.99
2022-12-14T12:17:03.729Z,99.99
2022-12-14T12:18:03.715Z,99.99
2022-12-14T12:19:09.648Z,99.99
2022-12-14T12:20:04.719Z,99.99
2022-12-14T12:21:03.685Z,99.99
2022-12-14T12:22:03.655Z,99.99
2022-12-14T12:23:03.651Z,99.99
2022-12-14T12:24:03.634Z,99.99
2022-12-14T12:26:03.611Z,99.99
2022-12-14T12:27:03.598Z,99.99
2022-12-14T12:28:03.591Z,99.99
2022-12-14T12:29:03.561Z,99.99
2022-12-14T12:30:03.552Z,99.99
2022-12-14T12:31:07.422Z,99.99
2022-12-14T12:32:04.559Z,99.99
2022-12-14T12:33:03.514Z,99.99
2022-12-14T12:34:03.504Z,99.99
2022-12-14T12:35:11.369Z,99.99
2022-12-14T12:36:04.505Z,99.99
2022-12-14T12:37:25.948Z,99.99
2022-12-14T12:38:04.477Z,99.99
2022-12-14T12:39:03.440Z,99.99
2022-12-14T12:40:03.414Z,99.99
2022-12-14T12:41:03.402Z,99.99
2022-12-14T12:42:05.395Z,99.99
2022-12-14T12:43:03.379Z,99.99
2022-12-14T12:44:03.375Z,99.99
2022-12-14T12:45:03.363Z,99.99
2022-12-14T12:46:03.451Z,99.99
2022-12-14T12:48:03.413Z,99.99
2022-12-14T12:49:03.309Z,99.99
2022-12-14T12:50:03.287Z,99.99
2022-12-14T12:51:03.278Z,99.99
2022-12-14T12:52:03.264Z,99.99
2022-12-14T12:53:04.329Z,99.99
2022-12-14T12:54:03.237Z,99.99